Time;durP1;ratioP1;P1;durP2;ratioP2;P2;SDS_P1;SDS_P2;PMS_P1;PMS_P2;Temp;Humidity;BMP_temperature;BMP_pressure;BME280_temperature;BME280_humidity;BME280_pressure;Samples;Min_cycle;Max_cycle;Signal;HPM_P1;HPM_P2
2021/06/15 00:01:51;;;;;;;0.95;0.30;;;;;;;18.69;59.45;100945.38;4967604;28;20077;-73
2021/06/15 00:04:17;;;;;;;1.60;0.40;;;;;;;18.60;58.99;100936.97;4988207;28;20057;-70
2021/06/15 00:06:42;;;;;;;0.28;0.28;;;;;;;18.58;58.45;100945.59;4988265;28;20031;-72
2021/06/15 00:09:08;;;;;;;0.55;0.30;;;;;;;18.52;58.45;100946.00;4971134;28;20092;-71
2021/06/15 00:11:34;;;;;;;1.05;0.40;;;;;;;18.46;58.02;100942.53;4973515;28;20033;-70
2021/06/15 00:13:59;;;;;;;0.40;0.20;;;;;;;18.43;57.64;100948.69;4986509;28;20373;-72
2021/06/15 00:16:25;;;;;;;0.50;0.50;;;;;;;18.41;57.37;100945.38;4976533;28;20033;-71
2021/06/15 00:18:50;;;;;;;1.83;0.50;;;;;;;18.40;57.18;100943.72;4968213;28;20030;-71
2021/06/15 00:21:16;;;;;;;1.95;0.30;;;;;;;18.42;56.96;100955.34;4987175;28;20039;-70
2021/06/15 00:23:41;;;;;;;0.80;0.65;;;;;;;18.39;56.65;100948.44;4975762;28;20057;-71
2021/06/15 00:26:07;;;;;;;0.77;0.40;;;;;;;18.30;55.28;100937.25;4956381;28;20046;-70
2021/06/15 00:28:32;;;;;;;0.98;0.40;;;;;;;18.37;55.20;100949.88;4975284;28;20388;-72
2021/06/15 00:30:57;;;;;;;1.35;0.63;;;;;;;18.35;54.69;100941.06;4968190;28;20413;-72
2021/06/15 00:33:23;;;;;;;2.60;0.50;;;;;;;18.33;54.32;100944.16;4988609;28;20094;-72
2021/06/15 00:35:48;;;;;;;0.68;0.40;;;;;;;18.30;53.70;100945.56;4985160;28;20105;-72
2021/06/15 00:38:14;;;;;;;0.73;0.52;;;;;;;18.31;53.51;100941.69;4947688;28;20027;-71
2021/06/15 00:40:39;;;;;;;0.60;0.47;;;;;;;18.32;53.38;100945.25;4973977;28;20637;-71
2021/06/15 00:43:05;;;;;;;0.10;0.10;;;;;;;18.37;52.49;100955.41;4974271;28;20404;-72
2021/06/15 00:45:32;;;;;;;0.70;0.32;;;;;;;18.35;52.73;100952.16;4975955;28;20049;-71
2021/06/15 00:47:58;;;;;;;0.60;0.28;;;;;;;18.37;51.98;100950.72;5013453;28;20033;-71
2021/06/15 00:50:25;;;;;;;1.00;0.30;;;;;;;18.39;51.81;100954.00;5007945;28;20040;-71
2021/06/15 00:52:53;;;;;;;0.20;0.20;;;;;;;18.39;51.10;100958.72;5004121;28;20046;-72
2021/06/15 00:55:20;;;;;;;0.50;0.20;;;;;;;18.31;50.97;100947.22;5005613;28;20045;-71
2021/06/15 00:57:46;;;;;;;0.40;0.28;;;;;;;18.29;50.55;100955.00;4978810;28;20026;-71
2021/06/15 01:00:12;;;;;;;0.20;0.20;;;;;;;18.19;50.77;100951.59;5008019;28;20045;-70
2021/06/15 01:02:38;;;;;;;0.35;0.20;;;;;;;18.14;50.43;100949.75;5014194;28;20033;-74
2021/06/15 01:05:07;;;;;;;1.20;0.40;;;;;;;18.10;49.84;100952.28;5012919;28;20040;-74
2021/06/15 01:07:49;;;;;;;0.35;0.30;;;;;;;18.00;50.28;100958.00;5007696;28;20033;-73
2021/06/15 01:10:39;;;;;;;3.22;0.20;;;;;;;17.88;50.33;100958.47;5002993;28;20130;-72
2021/06/15 01:13:26;;;;;;;0.35;0.20;;;;;;;17.78;50.03;100950.34;5004617;28;20031;-72
2021/06/15 01:16:10;;;;;;;1.27;0.30;;;;;;;17.71;49.99;100953.50;5004851;28;20037;-72
2021/06/15 01:18:41;;;;;;;0.73;0.35;;;;;;;17.58;49.66;100946.78;5011918;28;20104;-72
2021/06/15 01:21:10;;;;;;;0.98;0.70;;;;;;;17.55;49.93;100954.84;5006772;28;20026;-77
2021/06/15 01:23:42;;;;;;;0.40;0.30;;;;;;;17.50;49.73;100955.75;5020436;28;20034;-76
2021/06/15 01:26:29;;;;;;;0.30;0.20;;;;;;;17.49;49.85;100954.09;5012971;28;20113;-78
2021/06/15 01:29:02;;;;;;;0.73;0.50;;;;;;;17.46;49.72;100949.16;4996063;28;20118;-76
2021/06/15 01:31:33;;;;;;;0.88;0.30;;;;;;;17.40;49.55;100950.38;5014446;28;20022;-79
2021/06/15 01:34:06;;;;;;;4.15;0.35;;;;;;;17.33;49.65;100944.41;5011558;28;20092;-80
2021/06/15 01:36:39;;;;;;;0.20;0.20;;;;;;;17.30;49.50;100953.28;4988430;28;20383;-79
2021/06/15 01:39:20;;;;;;;0.20;0.15;;;;;;;17.31;49.24;100957.72;5012263;28;20580;-80
2021/06/15 01:42:13;;;;;;;0.30;0.20;;;;;;;17.27;49.03;100957.47;5017098;28;20463;-79
2021/06/15 01:44:38;;;;;;;0.35;0.20;;;;;;;17.15;49.17;100955.16;5007841;28;20081;-79
2021/06/15 01:47:14;;;;;;;2.05;0.20;;;;;;;17.14;49.35;100958.22;5007637;28;20050;-78
2021/06/15 01:49:51;;;;;;;0.25;0.10;;;;;;;17.09;49.03;100957.16;4996741;28;20018;-79
2021/06/15 01:52:20;;;;;;;0.35;0.30;;;;;;;17.05;48.78;100958.84;5016532;28;20076;-78
2021/06/15 01:54:47;;;;;;;1.20;0.40;;;;;;;17.04;49.02;100972.97;4993270;28;20033;-79
2021/06/15 01:57:17;;;;;;;0.45;0.30;;;;;;;17.01;48.49;100960.59;5018581;28;20050;-78
2021/06/15 01:59:44;;;;;;;0.30;0.20;;;;;;;17.04;48.72;100959.16;5014333;28;20419;-79
2021/06/15 02:02:15;;;;;;;0.40;0.30;;;;;;;17.00;48.15;100952.59;5015907;28;20037;-78
2021/06/15 02:04:49;;;;;;;0.28;0.28;;;;;;;17.05;48.13;100969.09;5000420;28;20108;-79
2021/06/15 02:07:20;;;;;;;0.57;0.28;;;;;;;17.05;48.41;100956.09;4998319;28;20068;-77
2021/06/15 02:09:50;;;;;;;0.20;0.10;;;;;;;17.00;47.99;100950.66;5019252;28;20018;-78
2021/06/15 02:12:19;;;;;;;0.63;0.40;;;;;;;17.01;48.10;100954.22;5010819;28;20073;-78
2021/06/15 02:14:44;;;;;;;0.40;0.40;;;;;;;16.96;47.95;100962.59;5012208;28;20029;-78
2021/06/15 02:17:13;;;;;;;0.55;0.20;;;;;;;16.98;47.74;100950.16;5010679;28;20484;-79
2021/06/15 02:19:40;;;;;;;2.65;0.52;;;;;;;16.99;48.18;100951.75;5017493;28;20467;-78
2021/06/15 02:22:12;;;;;;;0.43;0.40;;;;;;;16.97;47.69;100965.06;5020532;28;20041;-78
2021/06/15 02:24:44;;;;;;;1.05;0.22;;;;;;;16.95;47.91;100950.72;5011513;28;20061;-77
2021/06/15 02:27:11;;;;;;;0.40;0.28;;;;;;;16.87;48.02;100943.91;5009282;28;20022;-78
2021/06/15 02:29:38;;;;;;;0.57;0.20;;;;;;;16.92;47.62;100956.81;5019908;28;20091;-78
2021/06/15 02:32:06;;;;;;;3.42;0.40;;;;;;;16.83;47.56;100951.09;5017582;28;20030;-79
2021/06/15 02:34:37;;;;;;;2.25;0.32;;;;;;;16.81;47.54;100958.06;4993046;28;20435;-78
2021/06/15 02:37:06;;;;;;;3.28;0.40;;;;;;;16.68;47.47;100940.25;5009529;28;20603;-78
2021/06/15 02:39:36;;;;;;;0.20;0.10;;;;;;;16.62;47.72;100931.22;5014201;28;20060;-79
2021/06/15 02:42:32;;;;;;;;;;;;;;;;;;;;;
2021/06/15 02:45:00;;;;;;;0.30;0.20;;;;;;;16.42;48.03;100928.69;4985271;28;20082;-80
2021/06/15 02:47:31;;;;;;;0.47;0.20;;;;;;;16.37;48.15;100918.53;5014037;28;20046;-80
2021/06/15 02:49:59;;;;;;;1.40;0.38;;;;;;;16.41;48.29;100936.13;5009073;28;20483;-80
2021/06/15 02:52:46;;;;;;;0.38;0.25;;;;;;;16.37;48.13;100937.88;5015062;28;20026;-80
2021/06/15 02:55:23;;;;;;;1.23;0.75;;;;;;;16.26;48.54;100931.63;5016809;28;20030;-78
2021/06/15 02:57:49;;;;;;;3.75;0.30;;;;;;;16.18;48.37;100933.06;5034822;28;20032;-82
2021/06/15 03:00:15;;;;;;;0.38;0.30;;;;;;;16.14;48.58;100932.00;5021700;28;20039;-83
2021/06/15 03:02:40;;;;;;;1.65;0.68;;;;;;;16.06;48.17;100932.63;5020455;28;20037;-82
2021/06/15 03:05:14;;;;;;;0.82;0.30;;;;;;;16.03;48.14;100924.94;5018987;28;20085;-82
2021/06/15 03:07:40;;;;;;;0.73;0.20;;;;;;;15.99;48.84;100923.88;5019665;28;20025;-81
2021/06/15 03:10:07;;;;;;;0.80;0.20;;;;;;;15.96;48.43;100936.31;5029574;28;20030;-80
2021/06/15 03:13:05;;;;;;;0.60;0.30;;;;;;;15.93;48.39;100930.56;5027662;28;20535;-82
2021/06/15 03:15:53;;;;;;;0.90;0.30;;;;;;;15.82;48.62;100930.66;5018647;28;20038;-81
2021/06/15 03:18:27;;;;;;;0.35;0.35;;;;;;;15.77;48.83;100935.34;5018045;28;20483;-81
2021/06/15 03:20:57;;;;;;;0.43;0.25;;;;;;;15.70;48.70;100927.41;5014588;28;20018;-81
2021/06/15 03:23:41;;;;;;;5.25;0.35;;;;;;;15.69;48.88;100936.78;5019254;28;20044;-82
2021/06/15 03:26:16;;;;;;;0.82;0.17;;;;;;;15.61;49.30;100923.63;5009031;28;20037;-81
2021/06/15 03:28:47;;;;;;;0.40;0.17;;;;;;;15.59;49.41;100921.16;5020494;28;22279;-81
2021/06/15 03:31:16;;;;;;;0.20;0.20;;;;;;;15.58;49.15;100922.28;5016871;28;20025;-81
2021/06/15 03:33:44;;;;;;;0.40;0.20;;;;;;;15.53;49.19;100920.38;5019491;28;20025;-84
2021/06/15 03:36:11;;;;;;;0.90;0.10;;;;;;;15.49;49.46;100919.31;5021026;28;20692;-83
2021/06/15 03:38:38;;;;;;;0.47;0.20;;;;;;;15.47;49.94;100924.28;5019911;28;20022;-84
2021/06/15 03:41:05;;;;;;;1.05;0.30;;;;;;;15.43;49.77;100928.72;5031297;28;20539;-84
2021/06/15 03:43:32;;;;;;;0.73;0.40;;;;;;;15.42;50.12;100926.25;5022281;28;20395;-83
2021/06/15 03:46:06;;;;;;;1.20;0.30;;;;;;;15.39;49.55;100938.69;5017525;28;20061;-84
2021/06/15 03:48:33;;;;;;;0.35;0.20;;;;;;;15.40;49.87;100940.31;4996590;28;20030;-84
2021/06/15 03:51:00;;;;;;;0.10;0.10;;;;;;;15.38;50.14;100939.78;4984851;28;20526;-83
2021/06/15 03:53:32;;;;;;;0.28;0.13;;;;;;;15.37;50.18;100943.63;5003172;28;20046;-83
2021/06/15 03:56:00;;;;;;;0.30;0.30;;;;;;;15.41;50.47;100944.72;5002418;28;20014;-82
2021/06/15 03:58:27;;;;;;;0.55;0.35;;;;;;;15.40;50.28;100940.31;5005818;28;20042;-84
2021/06/15 04:00:54;;;;;;;1.23;0.50;;;;;;;15.42;50.22;100940.88;4983291;28;20027;-84
2021/06/15 04:03:20;;;;;;;0.40;0.10;;;;;;;15.43;49.89;100934.22;5003946;28;20035;-85
2021/06/15 04:05:47;;;;;;;0.30;0.30;;;;;;;15.40;50.09;100932.03;4987614;28;20475;-85
2021/06/15 04:08:14;;;;;;;0.28;0.28;;;;;;;15.34;50.42;100925.75;4981633;28;20038;-81
2021/06/15 04:10:43;;;;;;;0.35;0.20;;;;;;;15.39;50.00;100946.09;4994837;28;20481;-83
2021/06/15 04:13:10;;;;;;;1.02;0.20;;;;;;;15.38;50.48;100953.56;5007810;28;20030;-84
2021/06/15 04:15:36;;;;;;;1.48;0.30;;;;;;;15.36;50.89;100934.56;4991383;28;20072;-81
2021/06/15 04:18:04;;;;;;;1.27;0.22;;;;;;;15.35;50.72;100932.09;4980794;28;20038;-80
2021/06/15 04:20:34;;;;;;;0.40;0.30;;;;;;;15.41;51.00;100946.66;4998836;28;20080;-79
2021/06/15 04:23:03;;;;;;;0.70;0.40;;;;;;;15.36;50.78;100944.75;4982186;28;20026;-79
2021/06/15 04:25:32;;;;;;;0.20;0.20;;;;;;;15.30;50.77;100935.72;5000055;28;20022;-78
2021/06/15 04:28:00;;;;;;;7.90;0.52;;;;;;;15.24;50.50;100936.00;5007381;28;20026;-79
2021/06/15 04:30:29;;;;;;;0.60;0.35;;;;;;;15.25;51.13;100951.44;4998687;28;20033;-79
2021/06/15 04:32:57;;;;;;;0.55;0.35;;;;;;;15.17;51.14;100948.19;4996193;28;20084;-79
2021/06/15 04:35:27;;;;;;;3.85;0.43;;;;;;;15.18;51.65;100960.81;4986575;28;20034;-82
2021/06/15 04:37:55;;;;;;;0.30;0.20;;;;;;;15.17;51.34;100961.09;5003723;28;20019;-82
2021/06/15 04:40:29;;;;;;;0.88;0.38;;;;;;;15.19;51.21;100962.47;4995587;28;20117;-81
2021/06/15 04:43:08;;;;;;;3.58;0.70;;;;;;;15.21;51.40;100964.13;5000675;28;21813;-81
2021/06/15 04:45:40;;;;;;;1.48;0.47;;;;;;;15.36;51.74;100977.81;4992132;28;20030;-81
2021/06/15 04:48:27;;;;;;;0.65;0.20;;;;;;;15.42;51.56;100978.59;4980415;28;20061;-85
2021/06/15 04:50:58;;;;;;;2.03;0.43;;;;;;;15.56;51.07;100987.06;4983807;28;20038;-81
2021/06/15 04:53:26;;;;;;;0.65;0.20;;;;;;;15.64;50.94;100983.72;4996776;28;20030;-84
2021/06/15 04:55:52;;;;;;;0.17;0.13;;;;;;;15.68;51.11;100973.75;5001998;28;20060;-82
2021/06/15 04:58:21;;;;;;;0.70;0.20;;;;;;;15.80;51.06;100993.53;4973526;28;21236;-81
2021/06/15 05:00:47;;;;;;;1.75;0.35;;;;;;;15.87;51.16;100994.03;4976216;28;20443;-82
2021/06/15 05:03:13;;;;;;;0.40;0.30;;;;;;;15.94;50.70;100998.41;4983726;28;20031;-77
2021/06/15 05:05:39;;;;;;;2.28;0.38;;;;;;;16.01;50.56;101007.16;4994782;28;20397;-77
2021/06/15 05:08:08;;;;;;;1.55;0.35;;;;;;;16.06;50.66;101007.13;4976291;28;20049;-76
2021/06/15 05:10:38;;;;;;;0.55;0.25;;;;;;;16.14;50.75;101014.78;4983622;28;20034;-77
2021/06/15 05:13:09;;;;;;;2.42;0.40;;;;;;;16.22;50.90;101011.41;5000663;28;20029;-79
2021/06/15 05:15:35;;;;;;;1.40;0.65;;;;;;;16.30;50.55;101011.91;4989258;28;20026;-76
2021/06/15 05:18:01;;;;;;;1.63;0.60;;;;;;;16.37;50.47;101004.09;4993099;28;20030;-77
2021/06/15 05:20:27;;;;;;;0.60;0.38;;;;;;;16.44;50.35;101000.97;4996341;28;20091;-75
2021/06/15 05:22:53;;;;;;;0.82;0.47;;;;;;;16.51;49.85;101013.31;4987608;28;20385;-76
2021/06/15 05:25:19;;;;;;;0.65;0.30;;;;;;;16.58;49.78;101013.78;4997996;28;20030;-77
2021/06/15 05:27:45;;;;;;;2.92;0.40;;;;;;;16.65;49.70;101020.94;4986625;28;20409;-77
2021/06/15 05:30:11;;;;;;;0.90;0.57;;;;;;;16.72;49.51;101019.47;4987438;28;20028;-76
2021/06/15 05:32:39;;;;;;;1.33;0.50;;;;;;;16.79;49.61;101021.84;4991799;28;20037;-77
2021/06/15 05:35:05;;;;;;;0.65;0.40;;;;;;;16.88;49.82;101028.44;4974537;28;20417;-79
2021/06/15 05:37:30;;;;;;;1.98;0.60;;;;;;;16.91;48.99;101016.78;4975867;28;20023;-80
2021/06/15 05:39:56;;;;;;;0.40;0.30;;;;;;;16.94;49.00;101015.38;4992577;28;20038;-79
2021/06/15 05:42:22;;;;;;;1.85;0.45;;;;;;;16.96;49.22;101012.31;4959832;28;20133;-78
2021/06/15 05:44:48;;;;;;;1.25;0.70;;;;;;;16.95;48.74;101016.19;5002304;28;20098;-80
2021/06/15 05:47:13;;;;;;;6.28;0.90;;;;;;;16.99;48.97;101011.72;5010048;28;20092;-76
2021/06/15 05:49:39;;;;;;;0.47;0.20;;;;;;;17.05;49.10;101016.88;4987931;28;20022;-78
2021/06/15 05:52:06;;;;;;;4.22;0.35;;;;;;;17.13;48.88;101023.72;5011315;28;20038;-79
2021/06/15 05:54:32;;;;;;;1.67;0.30;;;;;;;17.17;48.64;101024.78;5012106;28;20045;-78
2021/06/15 05:57:01;;;;;;;3.97;0.45;;;;;;;17.23;48.91;101018.06;4989393;28;20030;-76
2021/06/15 05:59:27;;;;;;;1.08;0.35;;;;;;;17.26;48.44;101019.41;5010746;28;20033;-77
2021/06/15 06:01:52;;;;;;;0.20;0.20;;;;;;;17.27;48.52;101019.13;5008034;28;20025;-77
2021/06/15 06:04:23;;;;;;;0.30;0.30;;;;;;;17.33;48.66;101027.31;5008541;28;20070;-75
2021/06/15 06:09:36;;;;;;;0.43;0.40;;;;;;;17.43;48.60;101016.13;4997825;28;20160;-78
2021/06/15 06:12:08;;;;;;;0.80;0.40;;;;;;;17.47;48.35;101019.94;5011937;28;20464;-82
2021/06/15 06:14:34;;;;;;;2.45;0.50;;;;;;;17.49;48.31;101020.44;5009142;28;20032;-77
2021/06/15 06:17:01;;;;;;;3.20;0.68;;;;;;;17.60;48.34;101035.78;5011908;28;20022;-72
2021/06/15 06:19:27;;;;;;;1.65;0.50;;;;;;;17.67;48.34;101037.34;5008400;28;20048;-74
2021/06/15 06:21:54;;;;;;;0.63;0.50;;;;;;;17.71;48.31;101035.63;5017082;28;20081;-73
2021/06/15 06:24:20;;;;;;;6.32;0.70;;;;;;;17.78;48.18;101028.63;5006416;28;20817;-74
2021/06/15 06:26:51;;;;;;;1.42;0.52;;;;;;;17.83;48.00;101030.47;4984906;28;20130;-74
2021/06/15 06:29:18;;;;;;;3.78;0.70;;;;;;;17.90;47.87;101030.97;5008234;28;20026;-73
2021/06/15 06:31:44;;;;;;;1.33;0.63;;;;;;;17.96;47.67;101029.75;5000368;28;20026;-73
2021/06/15 06:34:09;;;;;;;3.00;0.50;;;;;;;18.04;47.54;101038.50;4998570;28;20120;-74
2021/06/15 06:36:35;;;;;;;0.50;0.38;;;;;;;18.07;47.75;101040.66;5010411;28;20033;-73
2021/06/15 06:39:05;;;;;;;2.15;0.60;;;;;;;18.04;47.73;101041.25;5012144;28;20038;-75
2021/06/15 06:41:31;;;;;;;1.13;0.52;;;;;;;18.05;47.32;101038.19;4998990;28;21495;-74
2021/06/15 06:43:56;;;;;;;1.42;0.40;;;;;;;18.08;47.98;101031.22;5010730;28;20033;-74
2021/06/15 06:46:22;;;;;;;1.00;0.55;;;;;;;18.12;47.74;101029.47;5010914;28;20053;-73
2021/06/15 06:48:47;;;;;;;2.00;0.52;;;;;;;18.23;47.77;101036.50;5012324;28;20029;-74
2021/06/15 06:51:13;;;;;;;1.35;0.60;;;;;;;18.33;47.75;101031.94;5003498;28;20137;-72
2021/06/15 06:53:38;;;;;;;1.95;0.93;;;;;;;18.45;47.36;101035.00;5012708;28;20474;-74
2021/06/15 06:56:06;;;;;;;1.25;0.60;;;;;;;18.61;46.93;101044.69;4995419;28;20231;-70
2021/06/15 06:58:32;;;;;;;1.63;0.50;;;;;;;18.68;46.94;101049.84;5006261;28;20030;-72
2021/06/15 07:00:57;;;;;;;1.55;0.70;;;;;;;18.71;46.51;101042.88;5011152;28;20045;-74
2021/06/15 07:03:35;;;;;;;2.00;0.80;;;;;;;18.83;46.53;101059.78;5009787;28;20038;-72
2021/06/15 07:06:00;;;;;;;0.88;0.50;;;;;;;18.95;46.20;101056.53;5011439;28;20042;-76
2021/06/15 07:08:25;;;;;;;1.48;0.70;;;;;;;18.95;46.35;101038.00;5007759;28;20132;-75
2021/06/15 07:10:51;;;;;;;1.35;0.70;;;;;;;19.16;46.49;101048.66;5007089;28;20048;-74
2021/06/15 07:13:18;;;;;;;2.33;0.75;;;;;;;19.24;45.70;101044.31;5008303;28;20687;-74
2021/06/15 07:15:43;;;;;;;2.45;0.75;;;;;;;19.17;46.07;101033.66;5004715;28;20742;-72
2021/06/15 07:18:20;;;;;;;1.95;0.65;;;;;;;19.27;45.68;101041.75;5010915;28;20084;-73
2021/06/15 07:20:46;;;;;;;2.25;0.45;;;;;;;19.31;45.62;101033.63;5010992;28;20025;-74
2021/06/15 07:23:11;;;;;;;1.35;0.43;;;;;;;19.57;45.22;101049.72;5016216;28;20048;-74
2021/06/15 07:25:37;;;;;;;2.15;0.88;;;;;;;19.60;44.84;101049.91;5010019;28;20034;-75
2021/06/15 07:28:03;;;;;;;1.25;0.75;;;;;;;19.68;44.91;101065.81;5018458;28;20060;-74
2021/06/15 07:30:28;;;;;;;0.50;0.40;;;;;;;19.69;45.02;101058.31;5022309;28;20022;-74
2021/06/15 07:32:57;;;;;;;1.33;1.23;;;;;;;19.75;44.81;101056.25;5014445;28;20045;-73
2021/06/15 07:35:27;;;;;;;2.70;0.88;;;;;;;19.84;45.20;101057.16;5020072;28;20026;-74
2021/06/15 07:37:54;;;;;;;4.50;0.80;;;;;;;19.86;45.13;101050.19;4984116;28;20092;-73
2021/06/15 07:40:23;;;;;;;1.02;0.70;;;;;;;19.92;44.88;101050.88;5007717;28;20101;-73
2021/06/15 07:42:54;;;;;;;0.45;0.30;;;;;;;20.10;44.82;101053.78;5014540;28;20105;-75
2021/06/15 07:45:23;;;;;;;6.70;1.27;;;;;;;20.11;44.23;101039.59;5010003;28;20028;-74
2021/06/15 07:47:49;;;;;;;1.77;0.63;;;;;;;20.22;44.05;101038.19;4978559;28;20036;-74
2021/06/15 07:50:17;;;;;;;1.55;0.80;;;;;;;20.32;43.80;101051.00;4995308;28;20094;-72
2021/06/15 07:52:46;;;;;;;1.70;0.60;;;;;;;20.36;44.30;101040.88;4984064;28;20434;-74
2021/06/15 07:55:14;;;;;;;1.33;0.50;;;;;;;20.44;44.40;101041.25;4985478;28;20026;-73
2021/06/15 07:57:40;;;;;;;2.13;0.98;;;;;;;20.55;44.25;101043.44;4986104;28;20026;-73
2021/06/15 08:00:07;;;;;;;1.63;0.50;;;;;;;20.67;43.97;101045.66;4990755;28;20029;-72
2021/06/15 08:02:33;;;;;;;1.98;0.68;;;;;;;20.74;43.79;101039.66;4975356;28;20041;-74
2021/06/15 08:04:59;;;;;;;1.17;0.55;;;;;;;20.85;43.80;101035.47;4991377;28;20030;-72
2021/06/15 08:07:24;;;;;;;2.53;0.47;;;;;;;20.96;43.39;101037.94;4992728;28;20042;-77
2021/06/15 08:09:49;;;;;;;3.05;0.50;;;;;;;21.07;43.18;101040.09;4997809;28;20030;-78
2021/06/15 08:12:17;;;;;;;2.95;1.08;;;;;;;21.23;43.24;101050.75;4995946;28;20068;-77
2021/06/15 08:14:43;;;;;;;0.40;0.40;;;;;;;21.36;43.22;101052.63;4981900;28;20030;-74
2021/06/15 08:17:08;;;;;;;1.00;0.50;;;;;;;21.48;42.83;101042.81;5002292;28;20034;-73
2021/06/15 08:19:33;;;;;;;1.77;0.47;;;;;;;21.64;43.06;101052.38;4996071;28;20030;-75
2021/06/15 08:21:59;;;;;;;0.40;0.30;;;;;;;21.77;42.46;101053.34;4984266;28;20495;-77
2021/06/15 08:24:25;;;;;;;1.05;0.40;;;;;;;21.85;42.31;101054.50;4986251;28;20038;-77
2021/06/15 08:26:50;;;;;;;0.95;0.47;;;;;;;21.95;42.39;101054.16;4943592;28;20033;-76
2021/06/15 08:29:16;;;;;;;0.57;0.28;;;;;;;22.05;42.19;101051.06;4978843;28;20186;-77
2021/06/15 08:31:41;;;;;;;1.38;1.20;;;;;;;22.15;42.02;101047.09;4991805;28;20054;-77
2021/06/15 08:34:07;;;;;;;1.98;0.90;;;;;;;22.23;41.67;101042.69;4991509;28;20081;-76
2021/06/15 08:36:32;;;;;;;1.00;0.90;;;;;;;22.36;41.83;101046.47;4972241;28;20081;-77
2021/06/15 08:39:02;;;;;;;1.13;0.55;;;;;;;22.42;41.60;101034.78;4991832;28;20035;-77
2021/06/15 08:41:28;;;;;;;0.63;0.40;;;;;;;22.55;41.37;101046.06;4983920;28;20021;-75
2021/06/15 08:43:54;;;;;;;1.10;0.52;;;;;;;22.61;41.06;101047.53;4992418;28;20030;-76
2021/06/15 08:46:20;;;;;;;1.05;0.40;;;;;;;22.70;41.49;101042.72;4996131;28;20061;-77
2021/06/15 08:48:45;;;;;;;0.35;0.20;;;;;;;22.80;40.99;101039.56;5016820;28;20407;-78
2021/06/15 08:51:11;;;;;;;2.88;0.40;;;;;;;22.91;40.85;101045.63;5009391;28;20033;-77
2021/06/15 08:53:37;;;;;;;0.80;0.40;;;;;;;23.01;40.92;101038.81;5013305;28;20044;-77
2021/06/15 08:56:33;;;;;;;1.20;0.30;;;;;;;23.23;40.48;101025.78;5008844;28;20041;-76
2021/06/15 08:59:30;;;;;;;3.83;0.70;;;;;;;23.36;40.25;101021.91;5005115;28;20034;-75
2021/06/15 09:01:58;;;;;;;0.40;0.40;;;;;;;23.39;40.53;101026.81;4987183;28;21430;-76
2021/06/15 09:04:24;;;;;;;0.75;0.50;;;;;;;23.45;40.66;101017.09;5010865;28;20030;-76
2021/06/15 09:06:51;;;;;;;1.17;0.40;;;;;;;23.62;40.34;101024.50;5011091;28;20044;-79
2021/06/15 09:09:17;;;;;;;1.00;0.35;;;;;;;23.73;40.31;101024.09;5013518;28;20112;-79
2021/06/15 09:11:55;;;;;;;3.05;0.40;;;;;;;23.77;39.98;101020.31;5006085;28;20068;-78
2021/06/15 09:14:54;;;;;;;0.95;0.22;;;;;;;23.90;40.09;101014.78;5009699;28;20022;-78
2021/06/15 09:17:25;;;;;;;0.77;0.30;;;;;;;23.88;40.13;101015.94;5008526;28;20033;-77
2021/06/15 09:19:51;;;;;;;0.20;0.20;;;;;;;23.97;40.04;101009.47;5019222;28;20022;-78
2021/06/15 09:22:24;;;;;;;2.30;0.40;;;;;;;24.14;39.64;101012.09;5003749;28;20037;-78
2021/06/15 09:24:50;;;;;;;0.20;0.20;;;;;;;24.24;40.00;101008.06;5019261;28;20383;-77
2021/06/15 09:27:16;;;;;;;1.02;0.15;;;;;;;24.41;39.89;101018.22;5005247;28;20040;-76
2021/06/15 09:29:55;;;;;;;0.70;0.20;;;;;;;24.66;39.83;101015.50;5010580;28;20083;-78
2021/06/15 09:32:23;;;;;;;0.28;0.20;;;;;;;24.73;39.17;101016.53;5007519;28;20092;-77
2021/06/15 09:35:05;;;;;;;0.20;0.20;;;;;;;24.97;39.75;101020.53;5008509;28;20022;-78
2021/06/15 09:37:35;;;;;;;0.57;0.15;;;;;;;25.08;38.61;101018.06;5004120;28;20033;-78
2021/06/15 09:40:12;;;;;;;0.50;0.40;;;;;;;25.18;38.72;101017.59;5014983;28;20029;-79
2021/06/15 09:43:05;;;;;;;0.40;0.30;;;;;;;25.36;38.93;101011.75;5009361;28;20036;-78
2021/06/15 09:45:32;;;;;;;3.05;0.40;;;;;;;25.38;38.63;101006.63;5020459;28;20111;-78
2021/06/15 09:48:37;;;;;;;0.40;0.40;;;;;;;25.47;38.54;100998.91;5008153;28;20480;-77
2021/06/15 09:51:16;;;;;;;0.60;0.30;;;;;;;25.45;38.24;101006.81;4909837;29;20031;-76
2021/06/15 09:53:50;;;;;;;0.50;0.22;;;;;;;25.52;38.42;101006.25;4934420;29;20466;-77
2021/06/15 09:56:16;;;;;;;0.63;0.50;;;;;;;25.59;38.82;100998.06;4994693;28;20060;-77
2021/06/15 09:58:50;;;;;;;0.30;0.30;;;;;;;25.70;38.98;100998.34;5013962;28;20035;-78
2021/06/15 10:01:30;;;;;;;0.20;0.17;;;;;;;25.99;38.78;101001.97;4993958;28;20026;-77
2021/06/15 10:04:18;;;;;;;0.55;0.40;;;;;;;26.16;38.40;101003.69;5019662;28;20467;-77
2021/06/15 10:06:51;;;;;;;0.40;0.20;;;;;;;26.40;37.74;100999.91;5023306;28;20046;-77
2021/06/15 10:09:28;;;;;;;0.75;0.20;;;;;;;26.69;37.68;100995.88;5021911;28;20022;-77
2021/06/15 10:11:55;;;;;;;1.63;0.20;;;;;;;26.96;37.11;101002.56;4989578;28;20034;-75
2021/06/15 10:14:26;;;;;;;0.47;0.22;;;;;;;27.29;37.00;100994.88;5016241;28;20483;-75
2021/06/15 10:16:51;;;;;;;0.38;0.38;;;;;;;27.71;36.72;100990.59;4984388;28;20369;-76
2021/06/15 10:19:17;;;;;;;1.10;0.20;;;;;;;28.19;36.14;100996.78;5014218;28;20033;-76
2021/06/15 10:21:43;;;;;;;0.40;0.22;;;;;;;28.68;36.04;101001.69;4978062;28;20032;-76
2021/06/15 10:24:09;;;;;;;0.47;0.30;;;;;;;29.04;35.29;100999.44;5022277;28;20022;-76
2021/06/15 10:26:35;;;;;;;0.50;0.30;;;;;;;29.50;35.00;101000.50;5011260;28;20026;-77
2021/06/15 10:29:01;;;;;;;0.63;0.35;;;;;;;30.09;34.75;100998.81;5018901;28;20049;-78
2021/06/15 10:31:32;;;;;;;0.43;0.20;;;;;;;30.62;34.49;100994.09;5018295;28;20048;-76
2021/06/15 10:33:59;;;;;;;0.43;0.20;;;;;;;31.20;34.17;100991.72;5001575;28;20064;-77
2021/06/15 10:36:41;;;;;;;0.10;0.10;;;;;;;32.05;33.24;101004.59;5018275;28;20053;-77
2021/06/15 10:39:38;;;;;;;0.68;0.28;;;;;;;32.36;32.46;101005.13;5008247;28;20089;-77
2021/06/15 10:42:14;;;;;;;1.45;0.30;;;;;;;32.54;31.50;101005.91;4988189;28;20042;-76
2021/06/15 10:44:44;;;;;;;1.42;0.22;;;;;;;32.85;31.53;101014.03;5012055;28;20507;-76
2021/06/15 10:47:15;;;;;;;0.60;0.13;;;;;;;33.35;30.79;101008.31;4998357;28;20069;-74
2021/06/15 10:49:58;;;;;;;0.60;0.40;;;;;;;33.53;30.00;101011.06;4979201;28;20388;-78
2021/06/15 10:52:25;;;;;;;1.05;0.50;;;;;;;33.28;29.37;101001.84;4994709;28;20026;-76
2021/06/15 10:54:50;;;;;;;1.13;0.52;;;;;;;32.84;28.71;101001.91;4977405;28;20037;-77
2021/06/15 10:57:17;;;;;;;0.50;0.50;;;;;;;32.30;28.42;100995.38;4979953;28;20030;-76
2021/06/15 11:00:05;;;;;;;0.47;0.30;;;;;;;31.96;29.70;100992.88;4996374;28;20030;-76
2021/06/15 11:03:14;;;;;;;0.55;0.38;;;;;;;31.73;29.67;100991.19;4982476;28;20062;-73
2021/06/15 11:05:51;;;;;;;3.13;0.28;;;;;;;32.35;30.68;100997.81;4973830;28;20358;-74
2021/06/15 11:08:26;;;;;;;1.15;0.85;;;;;;;32.76;29.69;100971.19;4998699;28;20130;-75
2021/06/15 11:11:03;;;;;;;0.32;0.20;;;;;;;32.82;28.99;100976.00;4993889;28;20042;-74
2021/06/15 11:13:48;;;;;;;0.73;0.60;;;;;;;32.64;29.09;100976.00;4993573;28;20066;-75
2021/06/15 11:16:36;;;;;;;0.82;0.60;;;;;;;32.34;28.73;100968.72;4969473;28;20157;-74
2021/06/15 11:19:08;;;;;;;0.40;0.30;;;;;;;32.62;29.86;100972.78;4992414;28;20152;-75
2021/06/15 11:21:48;;;;;;;0.45;0.20;;;;;;;34.46;31.09;100971.28;4985518;28;20076;-74
2021/06/15 11:24:21;;;;;;;1.27;0.10;;;;;;;36.34;29.85;100965.78;4993400;28;20062;-73
2021/06/15 11:27:04;;;;;;;0.30;0.30;;;;;;;37.18;27.35;100974.50;4987895;28;20027;-74
2021/06/15 11:29:39;;;;;;;0.45;0.45;;;;;;;37.57;26.16;100969.22;4997491;28;20030;-73
2021/06/15 11:32:26;;;;;;;0.10;0.10;;;;;;;37.94;26.00;100967.22;4985125;28;20014;-74
2021/06/15 11:35:03;;;;;;;0.45;0.10;;;;;;;38.21;25.07;100966.19;4995278;28;20046;-75
2021/06/15 11:37:38;;;;;;;0.70;0.47;;;;;;;37.63;23.93;100964.63;4989796;28;20029;-75
2021/06/15 11:40:26;;;;;;;;;;;;;;;37.11;23.47;100963.22;4969644;28;20036;-74
2021/06/15 11:42:59;;;;;;;0.13;0.13;;;;;;;35.96;24.31;100953.78;4974512;28;20000;-74
2021/06/15 11:45:34;;;;;;;0.68;0.40;;;;;;;35.64;24.69;100955.81;4992392;28;20045;-74